createdAt,value
2023-01-25T00:00:12.305Z,18.73
2023-01-25T00:04:14.361Z,19.23
2023-01-25T00:08:16.660Z,18.60
2023-01-25T00:12:18.424Z,18.87
2023-01-25T00:16:20.278Z,19.27
2023-01-25T00:20:22.055Z,20.08
2023-01-25T00:24:25.578Z,18.33
2023-01-25T00:28:27.326Z,18.70
2023-01-25T00:32:37.848Z,17.80
2023-01-25T00:36:41.110Z,19.52
2023-01-25T00:40:42.857Z,18.83
2023-01-25T00:44:44.714Z,19.40
2023-01-25T00:48:46.634Z,19.67
2023-01-25T00:52:48.349Z,20.25
2023-01-25T00:56:53.713Z,20.30
2023-01-25T01:00:56.754Z,21.20
2023-01-25T01:04:58.945Z,21.70
2023-01-25T01:09:00.732Z,20.80
2023-01-25T01:13:02.538Z,19.25
2023-01-25T01:17:04.293Z,19.12
2023-01-25T01:21:08.101Z,18.65
2023-01-25T01:25:10.889Z,18.20
2023-01-25T01:29:13.040Z,17.87
2023-01-25T01:33:14.747Z,17.90
2023-01-25T01:37:16.516Z,17.70
2023-01-25T01:41:19.272Z,16.77
2023-01-25T01:45:49.219Z,16.83
2023-01-25T01:49:55.419Z,18.15
2023-01-25T01:54:19.223Z,18.50
2023-01-25T01:58:21.044Z,18.73
2023-01-25T02:02:26.103Z,16.52
2023-01-25T02:06:52.631Z,16.45
2023-01-25T02:10:54.600Z,17.37
2023-01-25T02:14:56.262Z,17.73
2023-01-25T02:19:02.090Z,17.35
2023-01-25T02:23:18.828Z,17.80
2023-01-25T02:27:21.208Z,18.80
2023-01-25T02:31:23.070Z,19.55
2023-01-25T02:35:37.874Z,19.05
2023-01-25T02:39:41.017Z,18.55
2023-01-25T02:43:42.805Z,18.80
2023-01-25T02:47:44.547Z,18.40
2023-01-25T02:51:52.228Z,18.48
2023-01-25T02:55:53.920Z,18.48
2023-01-25T02:59:55.640Z,19.48
2023-01-25T03:03:57.332Z,20.75
2023-01-25T03:07:59.041Z,19.45
2023-01-25T03:12:00.777Z,19.83
2023-01-25T03:16:05.941Z,18.67
2023-01-25T03:20:08.097Z,18.83
2023-01-25T03:24:10.434Z,20.33
2023-01-25T03:28:12.272Z,20.25
2023-01-25T03:32:13.961Z,20.15
2023-01-25T03:36:15.714Z,18.70
2023-01-25T03:40:17.581Z,18.55
2023-01-25T03:44:19.303Z,19.92
2023-01-25T03:48:21.879Z,20.12
2023-01-25T03:52:24.534Z,21.12
2023-01-25T03:56:26.451Z,20.55
2023-01-25T04:00:28.178Z,20.25
2023-01-25T04:04:29.815Z,18.85
2023-01-25T04:08:32.032Z,19.35
2023-01-25T04:12:33.764Z,17.92
2023-01-25T04:16:36.143Z,18.10
2023-01-25T04:20:37.961Z,19.85
2023-01-25T04:24:39.687Z,19.00
2023-01-25T04:28:41.652Z,18.30
2023-01-25T04:32:43.401Z,18.92
2023-01-25T04:36:45.236Z,18.70
2023-01-25T04:40:46.982Z,19.75
2023-01-25T04:44:48.740Z,19.60
2023-01-25T04:48:50.444Z,19.05
2023-01-25T04:52:52.727Z,17.95
2023-01-25T04:56:54.518Z,18.62
2023-01-25T05:01:01.358Z,18.27
2023-01-25T05:05:03.429Z,17.65
2023-01-25T05:09:05.156Z,17.70
2023-01-25T05:13:06.911Z,16.33
2023-01-25T05:17:08.867Z,17.37
2023-01-25T05:21:30.537Z,17.65
2023-01-25T05:25:50.744Z,19.10
2023-01-25T05:29:52.512Z,18.12
2023-01-25T05:33:54.202Z,19.52
2023-01-25T05:37:59.516Z,19.00
2023-01-25T05:42:01.287Z,19.70
2023-01-25T05:46:02.960Z,19.00
2023-01-25T05:50:05.521Z,19.85
2023-01-25T05:54:12.289Z,19.05
2023-01-25T05:58:13.907Z,19.12
2023-01-25T06:02:15.632Z,20.20
2023-01-25T06:06:17.455Z,21.27
2023-01-25T06:10:19.220Z,21.45
2023-01-25T06:14:20.843Z,22.62
2023-01-25T06:18:24.443Z,22.50
2023-01-25T06:22:26.129Z,22.75
2023-01-25T06:26:27.863Z,23.45
2023-01-25T06:30:29.769Z,25.95
2023-01-25T06:34:31.814Z,25.45
2023-01-25T06:38:33.880Z,26.05
2023-01-25T06:42:35.544Z,25.35
2023-01-25T06:46:37.466Z,24.73
2023-01-25T06:50:40.726Z,25.33
2023-01-25T06:54:42.420Z,26.10
2023-01-25T06:58:44.573Z,28.45
2023-01-25T07:02:46.211Z,25.08
2023-01-25T07:06:47.870Z,24.30
2023-01-25T07:10:57.121Z,23.12
2023-01-25T07:14:58.832Z,24.55
2023-01-25T07:19:00.514Z,25.17
2023-01-25T07:23:02.422Z,25.45
2023-01-25T07:27:04.113Z,24.52
2023-01-25T07:31:07.331Z,23.73
2023-01-25T07:35:09.566Z,25.40
2023-01-25T07:39:11.783Z,26.58
2023-01-25T07:43:13.502Z,24.48
2023-01-25T07:47:15.378Z,23.10
2023-01-25T07:51:22.649Z,24.33
2023-01-25T07:55:25.201Z,24.12
2023-01-25T07:59:27.238Z,25.25
2023-01-25T08:03:28.942Z,24.20
2023-01-25T08:07:30.652Z,24.60
2023-01-25T08:11:32.806Z,23.87
2023-01-25T08:15:34.779Z,25.05
2023-01-25T08:19:36.595Z,25.55
2023-01-25T08:23:38.291Z,26.48
2023-01-25T08:27:40.008Z,25.20
2023-01-25T08:31:43.938Z,26.33
2023-01-25T08:35:56.193Z,25.00
2023-01-25T08:39:59.723Z,25.20
2023-01-25T08:44:01.597Z,24.75
2023-01-25T08:48:03.504Z,25.58
2023-01-25T08:52:05.257Z,26.65
2023-01-25T08:56:09.297Z,26.67
2023-01-25T09:00:12.090Z,24.92
2023-01-25T09:04:13.999Z,27.25
2023-01-25T09:08:15.712Z,26.58
2023-01-25T09:12:17.455Z,25.27
2023-01-25T09:16:28.269Z,24.30
2023-01-25T09:20:33.214Z,24.60
2023-01-25T09:24:37.443Z,26.55
2023-01-25T09:28:39.158Z,27.52
2023-01-25T09:32:40.919Z,27.45
2023-01-25T09:36:42.930Z,26.50
2023-01-25T09:41:08.575Z,27.90
2023-01-25T09:45:31.621Z,26.50
2023-01-25T09:49:48.244Z,27.85
2023-01-25T09:53:53.371Z,26.87
2023-01-25T09:58:00.010Z,27.13
2023-01-25T10:02:27.810Z,28.00
2023-01-25T10:10:41.276Z,28.23
2023-01-25T10:14:43.074Z,28.25
2023-01-25T10:18:47.626Z,27.27
2023-01-25T10:23:12.062Z,27.70
2023-01-25T10:27:28.245Z,29.33
2023-01-25T10:31:44.131Z,30.25
2023-01-25T10:35:48.352Z,28.98
2023-01-25T10:40:14.741Z,30.67
2023-01-25T10:44:24.204Z,32.00
2023-01-25T10:48:37.263Z,30.62
2023-01-25T10:52:39.009Z,27.62
2023-01-25T10:56:42.204Z,29.08
2023-01-25T11:00:50.997Z,27.33
2023-01-25T11:04:52.719Z,27.92
2023-01-25T11:08:54.437Z,27.60
2023-01-25T11:13:15.118Z,29.55
2023-01-25T11:17:31.475Z,26.60
2023-01-25T11:21:34.726Z,26.73
2023-01-25T11:25:36.929Z,25.60
2023-01-25T11:29:38.704Z,25.00
2023-01-25T11:33:41.806Z,25.70
2023-01-25T11:38:12.447Z,25.65
2023-01-25T11:42:35.759Z,27.15
2023-01-25T11:46:49.989Z,26.90
2023-01-25T11:51:10.323Z,26.48
2023-01-25T11:55:30.337Z,25.35
2023-01-25T11:59:53.011Z,26.73
2023-01-25T12:04:17.688Z,26.48
2023-01-25T12:08:27.134Z,27.10
2023-01-25T12:12:43.085Z,27.23
2023-01-25T12:17:03.395Z,28.00
2023-01-25T12:21:36.078Z,27.40
2023-01-25T12:25:56.068Z,26.62
2023-01-25T12:30:10.831Z,26.58
2023-01-25T12:34:33.089Z,26.92
2023-01-25T12:38:55.030Z,26.25
2023-01-25T12:42:58.828Z,25.15
2023-01-25T12:47:10.360Z,24.65
2023-01-25T12:51:13.074Z,25.00
2023-01-25T12:55:17.451Z,25.48
2023-01-25T12:59:30.041Z,24.73
2023-01-25T13:03:56.766Z,24.40
2023-01-25T13:08:01.262Z,25.37
2023-01-25T13:12:04.635Z,25.65
2023-01-25T13:16:32.260Z,26.58
2023-01-25T13:25:03.763Z,24.87
2023-01-25T13:29:42.813Z,24.98
2023-01-25T13:33:44.613Z,26.20
2023-01-25T13:38:09.081Z,26.10
2023-01-25T13:42:10.655Z,27.50
2023-01-25T13:46:15.936Z,27.25
2023-01-25T13:50:23.797Z,28.60
2023-01-25T13:54:25.478Z,28.25
2023-01-25T13:58:36.278Z,27.92
2023-01-25T14:02:40.380Z,28.60
2023-01-25T14:06:42.134Z,28.05
2023-01-25T14:10:44.551Z,27.15
2023-01-25T14:14:49.281Z,27.87
2023-01-25T14:18:51.006Z,26.90
2023-01-25T14:22:52.704Z,28.55
2023-01-25T14:26:54.383Z,30.12
2023-01-25T14:30:58.469Z,27.98
2023-01-25T14:39:59.813Z,31.45
2023-01-25T14:44:13.338Z,28.17
2023-01-25T14:48:33.787Z,30.10
2023-01-25T14:52:35.655Z,32.13
2023-01-25T14:56:45.129Z,32.75
2023-01-25T15:00:54.662Z,28.50
2023-01-25T15:05:15.034Z,27.87
2023-01-25T15:09:31.672Z,29.17
2023-01-25T15:13:33.369Z,30.35
2023-01-25T15:17:41.089Z,29.45
2023-01-25T15:21:42.774Z,26.17
2023-01-25T15:25:59.280Z,25.12
2023-01-25T15:30:00.878Z,27.50
2023-01-25T15:34:03.184Z,26.62
2023-01-25T15:38:06.001Z,25.48
2023-01-25T15:42:08.929Z,26.33
2023-01-25T15:46:26.017Z,25.75
2023-01-25T15:50:29.087Z,25.75
2023-01-25T15:54:30.749Z,27.42
2023-01-25T15:58:40.919Z,24.23
2023-01-25T16:02:42.620Z,24.37
2023-01-25T16:06:50.003Z,23.05
2023-01-25T16:10:51.693Z,24.52
2023-01-25T16:14:53.468Z,24.02
2023-01-25T16:18:55.105Z,24.45
2023-01-25T16:22:56.896Z,26.05
2023-01-25T16:27:00.455Z,25.55
2023-01-25T16:31:02.147Z,23.65
2023-01-25T16:35:03.993Z,24.33
2023-01-25T16:39:19.973Z,25.52
2023-01-25T16:43:21.872Z,23.98
2023-01-25T16:47:24.525Z,25.40
2023-01-25T16:51:28.437Z,25.83
2023-01-25T16:55:30.071Z,23.67
2023-01-25T16:59:31.818Z,24.15
2023-01-25T17:03:33.561Z,24.95
2023-01-25T17:07:35.844Z,25.85
2023-01-25T17:11:38.301Z,26.62
2023-01-25T17:15:39.956Z,25.92
2023-01-25T17:19:41.649Z,26.00
2023-01-25T17:23:43.722Z,28.95
2023-01-25T17:27:45.352Z,27.05
2023-01-25T17:31:47.412Z,26.42
2023-01-25T17:35:49.222Z,28.48
2023-01-25T17:39:50.894Z,28.33
2023-01-25T17:43:52.972Z,28.92
2023-01-25T17:47:54.667Z,25.95
2023-01-25T17:51:56.443Z,27.02
2023-01-25T17:56:03.152Z,26.10
2023-01-25T18:00:06.594Z,25.67
2023-01-25T18:04:09.127Z,25.67
2023-01-25T18:08:11.450Z,27.33
2023-01-25T18:12:13.120Z,27.25
2023-01-25T18:16:17.085Z,25.20
2023-01-25T18:20:19.509Z,26.35
2023-01-25T18:24:35.901Z,28.05
2023-01-25T18:28:38.350Z,26.47
2023-01-25T18:32:40.011Z,27.10
2023-01-25T18:36:41.675Z,41.72
2023-01-25T18:40:47.205Z,27.10
2023-01-25T18:44:49.175Z,28.02
2023-01-25T18:48:51.045Z,30.83
2023-01-25T18:52:54.142Z,30.85
2023-01-25T18:56:55.834Z,31.58
2023-01-25T19:01:15.039Z,30.10
2023-01-25T19:05:18.571Z,31.37
2023-01-25T19:09:20.330Z,30.65
2023-01-25T19:13:22.013Z,31.17
2023-01-25T19:17:23.807Z,29.33
2023-01-25T19:21:27.750Z,32.20
2023-01-25T19:25:30.512Z,36.70
2023-01-25T19:29:32.271Z,36.67
2023-01-25T19:33:34.447Z,36.17
2023-01-25T19:37:36.090Z,36.00
2023-01-25T19:41:38.805Z,34.60
2023-01-25T19:45:40.599Z,33.45
2023-01-25T19:49:42.264Z,34.33
2023-01-25T19:53:46.437Z,33.65
2023-01-25T19:57:48.153Z,30.88
2023-01-25T20:01:50.062Z,27.85
2023-01-25T20:05:59.076Z,34.83
2023-01-25T20:10:00.740Z,30.75
2023-01-25T20:14:05.181Z,32.53
2023-01-25T20:18:06.817Z,35.90
2023-01-25T20:22:08.633Z,38.45
2023-01-25T20:26:19.334Z,37.35
2023-01-25T20:30:21.041Z,35.90
2023-01-25T20:34:23.709Z,36.10
2023-01-25T20:38:29.994Z,37.55
2023-01-25T20:42:31.667Z,36.63
2023-01-25T20:46:34.544Z,36.08
2023-01-25T20:50:36.223Z,36.20
2023-01-25T20:54:38.143Z,38.70
2023-01-25T20:58:39.797Z,37.40
2023-01-25T21:02:41.448Z,38.40
2023-01-25T21:06:43.136Z,34.40
2023-01-25T21:10:50.410Z,33.65
2023-01-25T21:14:52.134Z,32.58
2023-01-25T21:18:57.428Z,34.05
2023-01-25T21:22:59.108Z,33.42
2023-01-25T21:27:00.760Z,32.22
2023-01-25T21:31:14.903Z,33.30
2023-01-25T21:35:16.551Z,32.78
2023-01-25T21:39:18.155Z,32.28
2023-01-25T21:43:19.881Z,31.73
2023-01-25T21:47:30.501Z,33.83
2023-01-25T21:51:35.293Z,34.03
2023-01-25T21:55:36.916Z,35.03
2023-01-25T21:59:40.649Z,39.22
2023-01-25T22:03:42.324Z,36.40
2023-01-25T22:07:43.954Z,38.58
2023-01-25T22:11:45.867Z,38.25
2023-01-25T22:15:47.598Z,38.38
2023-01-25T22:19:49.318Z,38.72
2023-01-25T22:23:51.778Z,36.78
2023-01-25T22:28:00.043Z,35.05
2023-01-25T22:32:02.165Z,36.58
2023-01-25T22:36:04.675Z,35.67
2023-01-25T22:40:07.425Z,38.50
2023-01-25T22:44:09.775Z,39.20
2023-01-25T22:48:11.389Z,39.42
2023-01-25T22:52:13.039Z,40.78
2023-01-25T22:56:18.610Z,43.13
2023-01-25T23:00:20.472Z,41.53
2023-01-25T23:04:22.308Z,40.12
2023-01-25T23:08:24.014Z,40.17
2023-01-25T23:12:25.681Z,40.35
2023-01-25T23:16:27.379Z,41.75
2023-01-25T23:20:29.935Z,40.35
2023-01-25T23:24:31.685Z,38.92
2023-01-25T23:28:33.401Z,43.20
2023-01-25T23:32:35.126Z,43.65
2023-01-25T23:36:42.151Z,41.25
2023-01-25T23:40:44.532Z,40.08
2023-01-25T23:44:46.272Z,40.03
2023-01-25T23:48:48.040Z,38.83
2023-01-25T23:52:49.777Z,39.42
2023-01-25T23:56:51.428Z,40.72
